createdAt,value
2022-08-19T00:00:08.527Z,1012.29
2022-08-19T00:05:07.684Z,1012.22
2022-08-19T00:10:08.388Z,1012.22
2022-08-19T00:15:08.116Z,1012.23
2022-08-19T00:20:08.000Z,1012.15
2022-08-19T00:25:07.707Z,1012.18
2022-08-19T00:30:08.415Z,1012.2
2022-08-19T00:35:08.092Z,1012.28
2022-08-19T00:40:07.826Z,1012.31
2022-08-19T00:45:16.946Z,1012.4
2022-08-19T00:50:07.612Z,1012.34
2022-08-19T00:55:08.295Z,1012.33
2022-08-19T01:00:07.974Z,1012.19
2022-08-19T01:05:07.658Z,1012.24
2022-08-19T01:10:08.317Z,1012.23
2022-08-19T01:15:09.633Z,1012.25
2022-08-19T01:20:08.346Z,1012.34
2022-08-19T01:25:13.559Z,1012.28
2022-08-19T01:30:07.859Z,1012.25
2022-08-19T01:35:08.557Z,1012.29
2022-08-19T01:40:09.477Z,1012.34
2022-08-19T01:45:08.285Z,1012.32
2022-08-19T01:50:07.962Z,1012.29
2022-08-19T01:55:07.645Z,1012.33
2022-08-19T02:00:08.353Z,1012.29
2022-08-19T02:05:08.069Z,1012.27
2022-08-19T02:10:09.002Z,1012.18
2022-08-19T02:15:08.352Z,1012.33
2022-08-19T02:20:08.054Z,1012.33
2022-08-19T02:25:07.762Z,1012.33
2022-08-19T02:30:08.471Z,1012.24
2022-08-19T02:35:12.036Z,1012.29
2022-08-19T02:40:12.732Z,1012.18
2022-08-19T02:45:08.539Z,1012.23
2022-08-19T02:50:08.222Z,1012.31
2022-08-19T02:55:07.930Z,1012.39
2022-08-19T03:00:08.631Z,1012.49
2022-08-19T03:05:08.307Z,1012.45
2022-08-19T03:10:08.014Z,1012.46
2022-08-19T03:15:07.712Z,1012.38
2022-08-19T03:20:08.455Z,1012.41
2022-08-19T03:25:08.175Z,1012.37
2022-08-19T03:30:07.897Z,1012.36
2022-08-19T03:35:08.454Z,1012.54
2022-08-19T03:40:08.187Z,1012.39
2022-08-19T03:45:08.391Z,1012.39
2022-08-19T03:50:08.125Z,1012.33
2022-08-19T03:55:07.825Z,1012.3
2022-08-19T04:00:12.947Z,1012.23
2022-08-19T04:05:01.814Z,1012.23
2022-08-19T04:10:02.622Z,1012.28
2022-08-19T04:15:02.428Z,1012.34
2022-08-19T04:20:02.287Z,1012.4
2022-08-19T04:25:01.938Z,1012.33
2022-08-19T04:30:01.870Z,1012.41
2022-08-19T04:35:18.465Z,1012.36
2022-08-19T04:40:02.460Z,1012.31
2022-08-19T04:45:02.619Z,1012.3
2022-08-19T04:50:02.502Z,1012.33
2022-08-19T04:55:02.371Z,1012.35
2022-08-19T05:00:02.183Z,1012.44
2022-08-19T05:05:01.980Z,1012.38
2022-08-19T05:10:01.921Z,1012.45
2022-08-19T05:15:02.823Z,1012.5
2022-08-19T05:20:02.652Z,1012.41
2022-08-19T05:25:12.612Z,1012.51
2022-08-19T05:30:02.249Z,1012.49
2022-08-19T05:35:02.103Z,1012.57
2022-08-19T05:40:02.121Z,1012.56
2022-08-19T05:45:02.025Z,1012.48
2022-08-19T05:50:01.990Z,1012.45
2022-08-19T05:55:01.987Z,1012.62
2022-08-19T06:00:01.887Z,1012.46
2022-08-19T06:05:02.921Z,1012.5
2022-08-19T06:10:02.782Z,1012.51
2022-08-19T06:15:02.740Z,1012.65
2022-08-19T06:20:02.550Z,1012.65
2022-08-19T06:25:02.482Z,1012.65
2022-08-19T06:30:02.303Z,1012.67
2022-08-19T06:35:02.074Z,1012.72
2022-08-19T06:40:01.998Z,1012.74
2022-08-19T06:45:01.813Z,1012.69
2022-08-19T06:50:03.136Z,1012.69
2022-08-19T06:55:02.279Z,1012.81
2022-08-19T07:00:02.310Z,1012.75
2022-08-19T07:05:02.197Z,1012.78
2022-08-19T07:10:03.858Z,1012.78
2022-08-19T07:15:01.798Z,1012.91
2022-08-19T07:20:06.786Z,1012.91
2022-08-19T07:25:02.056Z,1013.0
2022-08-19T07:30:01.893Z,1013.0
2022-08-19T07:35:02.817Z,1012.97
2022-08-19T07:40:02.764Z,1012.95
2022-08-19T07:45:02.611Z,1013.0
2022-08-19T07:50:02.442Z,1013.12
2022-08-19T07:55:02.278Z,1013.16
2022-08-19T08:00:02.419Z,1013.18
2022-08-19T08:05:02.267Z,1013.19
2022-08-19T08:10:03.023Z,1013.15
2022-08-19T08:15:02.180Z,1013.14
2022-08-19T08:20:02.129Z,1013.22
2022-08-19T08:25:09.510Z,1013.24
2022-08-19T08:30:03.028Z,1013.32
2022-08-19T08:35:04.230Z,1013.3
2022-08-19T08:40:02.372Z,1013.26
2022-08-19T08:45:05.655Z,1013.32
2022-08-19T08:50:06.867Z,1013.26
2022-08-19T08:55:12.763Z,1013.23
2022-08-19T09:00:02.613Z,1013.27
2022-08-19T09:05:02.480Z,1013.28
2022-08-19T09:10:02.425Z,1013.17
2022-08-19T09:15:02.201Z,1013.15
2022-08-19T09:20:02.119Z,1013.21
2022-08-19T09:25:02.045Z,1013.23
2022-08-19T09:30:01.877Z,1013.15
2022-08-19T09:35:01.950Z,1013.18
2022-08-19T09:40:02.505Z,1013.12
2022-08-19T09:45:02.403Z,1013.21
2022-08-19T09:50:01.909Z,1013.13
2022-08-19T09:55:07.137Z,1013.09
2022-08-19T10:00:02.269Z,1013.12
2022-08-19T10:05:09.524Z,1013.15
2022-08-19T10:10:02.446Z,1013.12
2022-08-19T10:15:02.305Z,1013.11
2022-08-19T10:20:02.087Z,1013.03
2022-08-19T10:25:02.037Z,1013.08
2022-08-19T10:30:01.888Z,1013.03
2022-08-19T10:35:02.823Z,1013.03
2022-08-19T10:40:02.068Z,1013.04
2022-08-19T10:45:01.921Z,1013.0
2022-08-19T10:50:02.634Z,1012.95
2022-08-19T10:55:05.175Z,1012.92
2022-08-19T11:00:02.001Z,1012.93
2022-08-19T11:05:12.417Z,1012.81
2022-08-19T11:10:02.631Z,1012.79
2022-08-19T11:15:02.576Z,1012.74
2022-08-19T11:20:02.509Z,1012.77
2022-08-19T11:25:02.495Z,1012.82
2022-08-19T11:30:02.372Z,1012.81
2022-08-19T11:35:02.309Z,1012.81
2022-08-19T11:40:02.186Z,1012.82
2022-08-19T11:45:02.134Z,1012.76
2022-08-19T11:50:01.920Z,1012.66
2022-08-19T11:55:02.757Z,1012.7
2022-08-19T12:00:02.715Z,1012.75
2022-08-19T12:05:02.531Z,1012.82
2022-08-19T12:10:02.312Z,1012.86
2022-08-19T12:15:02.500Z,1012.88
2022-08-19T12:20:02.413Z,1012.86
2022-08-19T12:25:02.239Z,1012.86
2022-08-19T12:30:02.034Z,1012.84
2022-08-19T12:35:01.888Z,1012.91
2022-08-19T12:40:02.740Z,1012.91
2022-08-19T12:45:02.587Z,1012.87
2022-08-19T12:50:06.460Z,1012.83
2022-08-19T12:55:02.800Z,1012.85
2022-08-19T13:00:09.023Z,1012.72
2022-08-19T13:05:02.190Z,1012.7
2022-08-19T13:10:01.924Z,1012.72
2022-08-19T13:15:02.665Z,1012.61
2022-08-19T13:20:02.536Z,1012.61
2022-08-19T13:25:02.356Z,1012.55
2022-08-19T13:30:02.316Z,1012.49
2022-08-19T13:35:02.121Z,1012.41
2022-08-19T13:40:01.942Z,1012.53
2022-08-19T13:45:01.870Z,1012.39
2022-08-19T13:50:02.823Z,1012.52
2022-08-19T13:55:02.807Z,1012.35
2022-08-19T14:00:02.961Z,1012.31
2022-08-19T14:05:01.859Z,1012.29
2022-08-19T14:10:02.851Z,1012.23
2022-08-19T14:15:02.869Z,1012.19
2022-08-19T14:20:10.220Z,1012.26
2022-08-19T14:25:01.889Z,1012.22
2022-08-19T14:30:02.757Z,1012.13
2022-08-19T14:35:02.521Z,1012.17
2022-08-19T14:40:02.610Z,1012.16
2022-08-19T14:45:02.480Z,1012.14
2022-08-19T14:50:04.996Z,1012.27
2022-08-19T14:55:02.130Z,1012.24
2022-08-19T15:00:02.185Z,1012.14
2022-08-19T15:05:02.066Z,1012.37
2022-08-19T15:10:01.998Z,1012.32
2022-08-19T15:15:01.765Z,1012.37
2022-08-19T15:20:02.637Z,1012.25
2022-08-19T15:25:02.636Z,1012.32
2022-08-19T15:30:02.704Z,1012.28
2022-08-19T15:35:02.561Z,1012.33
2022-08-19T15:40:02.167Z,1012.37
2022-08-19T15:45:02.399Z,1012.4
2022-08-19T15:50:02.542Z,1012.44
2022-08-19T15:55:02.418Z,1012.6
2022-08-19T16:00:03.107Z,1012.57
2022-08-19T16:05:02.090Z,1012.64
2022-08-19T16:10:26.545Z,1012.66
2022-08-19T16:15:02.339Z,1012.69
2022-08-19T16:20:03.447Z,1012.79
2022-08-19T16:25:02.344Z,1012.73
2022-08-19T16:30:02.250Z,1012.71
2022-08-19T16:35:06.377Z,1012.76
2022-08-19T16:40:02.900Z,1012.75
2022-08-19T16:45:02.923Z,1012.76
2022-08-19T16:50:02.894Z,1012.92
2022-08-19T16:55:02.827Z,1012.94
2022-08-19T17:00:07.039Z,1013.01
2022-08-19T17:05:01.895Z,1013.01
2022-08-19T17:10:02.746Z,1013.17
2022-08-19T17:15:02.767Z,1013.21
2022-08-19T17:20:02.720Z,1013.27
2022-08-19T17:25:02.651Z,1013.19
2022-08-19T17:30:02.916Z,1013.18
2022-08-19T17:35:01.867Z,1013.1
2022-08-19T17:40:02.831Z,1013.13
2022-08-19T17:45:02.872Z,1013.19
2022-08-19T17:50:02.704Z,1013.15
2022-08-19T17:55:02.519Z,1013.15
2022-08-19T18:00:06.267Z,1013.05
2022-08-19T18:05:02.719Z,1013.07
2022-08-19T18:10:02.532Z,1013.06
2022-08-19T18:15:02.074Z,1013.07
2022-08-19T18:20:01.856Z,1013.01
2022-08-19T18:25:02.732Z,1012.97
2022-08-19T18:30:02.650Z,1012.98
2022-08-19T18:35:02.489Z,1013.15
2022-08-19T18:40:02.383Z,1013.09
2022-08-19T18:45:02.212Z,1013.12
2022-08-19T18:50:01.938Z,1013.14
2022-08-19T18:55:01.884Z,1013.15
2022-08-19T19:00:02.762Z,1013.22
2022-08-19T19:05:06.897Z,1013.28
2022-08-19T19:10:02.220Z,1013.27
2022-08-19T19:15:02.097Z,1013.32
2022-08-19T19:20:02.041Z,1013.46
2022-08-19T19:25:01.979Z,1013.44
2022-08-19T19:30:01.916Z,1013.45
2022-08-19T19:35:02.915Z,1013.53
2022-08-19T19:40:02.781Z,1013.56
2022-08-19T19:45:02.631Z,1013.65
2022-08-19T19:50:16.301Z,1013.69
2022-08-19T19:55:02.168Z,1013.65
2022-08-19T20:00:02.013Z,1013.68
2022-08-19T20:05:01.835Z,1013.73
2022-08-19T20:10:02.592Z,1013.72
2022-08-19T20:15:02.474Z,1013.7
2022-08-19T20:20:02.263Z,1013.72
2022-08-19T20:25:02.085Z,1013.67
2022-08-19T20:30:01.922Z,1013.68
2022-08-19T20:35:21.642Z,1013.77
2022-08-19T20:40:08.435Z,1013.72
2022-08-19T20:45:08.181Z,1013.85
2022-08-19T20:50:07.955Z,1013.82
2022-08-19T20:55:07.948Z,1013.83
2022-08-19T21:00:07.683Z,1013.8
2022-08-19T21:05:08.369Z,1013.81
2022-08-19T21:10:08.063Z,1013.92
2022-08-19T21:15:07.758Z,1013.85
2022-08-19T21:20:08.511Z,1013.85
2022-08-19T21:25:08.199Z,1013.82
2022-08-19T21:30:07.881Z,1013.95
2022-08-19T21:35:08.584Z,1013.88
2022-08-19T21:40:08.386Z,1013.88
2022-08-19T21:45:08.117Z,1013.88
2022-08-19T21:50:07.831Z,1013.83
2022-08-19T21:55:08.514Z,1013.79
2022-08-19T22:00:08.239Z,1013.79
2022-08-19T22:05:07.926Z,1013.76
2022-08-19T22:10:08.645Z,1013.87
2022-08-19T22:15:08.360Z,1013.95
2022-08-19T22:20:08.053Z,1014.0
2022-08-19T22:25:07.739Z,1013.95
2022-08-19T22:30:08.443Z,1013.91
2022-08-19T22:35:07.830Z,1013.96
2022-08-19T22:40:09.717Z,1014.12
2022-08-19T22:45:08.425Z,1014.21
2022-08-19T22:50:08.170Z,1014.21
2022-08-19T22:55:07.639Z,1014.11
2022-08-19T23:01:01.136Z,1014.11
2022-08-19T23:05:08.311Z,1014.13
2022-08-19T23:10:07.997Z,1014.16
2022-08-19T23:15:07.700Z,1014.22
2022-08-19T23:20:08.470Z,1014.21
2022-08-19T23:25:08.187Z,1014.26
2022-08-19T23:30:07.914Z,1014.28
2022-08-19T23:35:08.613Z,1014.2
2022-08-19T23:40:08.347Z,1014.16
2022-08-19T23:45:08.097Z,1014.21
2022-08-19T23:50:08.151Z,1014.16
2022-08-19T23:55:07.825Z,1014.14
